createdAt,value
2018-12-07T00:04:28.620Z,11.80
2018-12-07T00:09:29.554Z,11.60
2018-12-07T00:14:30.557Z,11.60
2018-12-07T00:19:28.293Z,11.70
2018-12-07T00:21:58.516Z,13.80
2018-12-07T00:24:27.489Z,11.70
2018-12-07T00:29:25.270Z,11.70
2018-12-07T00:36:51.582Z,11.70
2018-12-07T00:39:20.572Z,11.00
2018-12-07T00:41:49.873Z,11.70
2018-12-07T00:44:21.116Z,11.60
2018-12-07T00:46:50.147Z,8.40
2018-12-07T00:49:31.475Z,11.80
2018-12-07T00:54:29.305Z,11.70
2018-12-07T00:59:28.109Z,11.60
2018-12-07T01:04:30.808Z,11.60
2018-12-07T01:07:00.894Z,12.10
2018-12-07T01:09:32.952Z,11.60
2018-12-07T01:14:35.638Z,11.60
2018-12-07T01:22:05.834Z,11.70
2018-12-07T01:24:39.079Z,11.70
2018-12-07T01:29:40.346Z,11.60
2018-12-07T01:32:09.320Z,11.60
2018-12-07T01:37:13.912Z,11.60
2018-12-07T01:49:49.848Z,11.60
2018-12-07T01:54:47.928Z,11.60
2018-12-07T01:57:17.119Z,11.60
2018-12-07T01:59:46.368Z,12.60
2018-12-07T02:04:44.154Z,11.60
2018-12-07T02:07:24.270Z,11.50
2018-12-07T02:09:53.240Z,11.60
2018-12-07T02:14:51.123Z,9.40
2018-12-07T02:17:20.092Z,11.90
2018-12-07T02:19:49.331Z,11.70
2018-12-07T02:24:46.941Z,11.60
2018-12-07T02:32:26.055Z,11.70
2018-12-07T02:34:55.296Z,11.60
2018-12-07T02:39:52.818Z,11.60
2018-12-07T02:52:26.244Z,11.60
2018-12-07T02:57:28.905Z,11.60
2018-12-07T03:02:33.297Z,11.80
2018-12-07T03:05:02.606Z,11.70
2018-12-07T03:07:34.744Z,11.70
2018-12-07T03:12:36.218Z,11.80
2018-12-07T03:17:41.213Z,11.80
2018-12-07T03:22:42.523Z,11.70
2018-12-07T03:25:11.558Z,11.70
2018-12-07T03:27:44.638Z,11.80
2018-12-07T03:30:13.624Z,11.90
2018-12-07T03:32:46.625Z,11.90
2018-12-07T03:35:16.492Z,11.70
2018-12-07T03:37:52.184Z,11.70
2018-12-07T03:42:53.677Z,12.40
2018-12-07T03:45:22.655Z,11.70
2018-12-07T03:47:55.623Z,11.70
2018-12-07T03:50:24.572Z,11.60
2018-12-07T03:52:58.571Z,12.00
2018-12-07T03:58:01.484Z,11.60
2018-12-07T04:03:02.915Z,11.70
2018-12-07T04:05:31.935Z,11.90
2018-12-07T04:08:01.369Z,11.80
2018-12-07T04:10:30.577Z,11.80
2018-12-07T04:17:56.915Z,11.90
2018-12-07T04:22:54.532Z,11.80
2018-12-07T04:25:23.797Z,11.90
2018-12-07T04:40:26.295Z,11.90
2018-12-07T04:50:27.801Z,11.90
2018-12-07T05:00:32.151Z,13.00
2018-12-07T05:05:30.120Z,11.90
2018-12-07T05:15:24.944Z,12.00
2018-12-07T05:17:53.925Z,13.80
2018-12-07T05:20:23.187Z,12.30
2018-12-07T05:22:52.146Z,12.60
2018-12-07T05:30:19.516Z,12.20
2018-12-07T05:35:20.573Z,12.00
2018-12-07T05:37:53.257Z,12.20
2018-12-07T05:42:58.186Z,12.00
2018-12-07T05:45:27.108Z,12.00
2018-12-07T05:48:00.092Z,12.00
2018-12-07T05:50:29.071Z,12.10
2018-12-07T05:55:30.828Z,12.10
2018-12-07T05:58:03.816Z,12.10
2018-12-07T06:00:32.786Z,12.20
2018-12-07T06:05:36.467Z,12.00
2018-12-07T06:10:37.536Z,11.80
2018-12-07T06:15:35.380Z,12.50
2018-12-07T06:18:04.382Z,13.20
2018-12-07T06:30:29.780Z,12.40
2018-12-07T06:35:27.372Z,12.20
2018-12-07T07:03:05.204Z,12.10
2018-12-07T07:08:06.776Z,12.20
2018-12-07T07:10:39.883Z,11.90
2018-12-07T07:40:24.892Z,12.00
2018-12-07T07:57:49.997Z,12.70
2018-12-07T08:25:23.636Z,11.90
2018-12-07T08:27:52.681Z,11.80
2018-12-07T08:32:53.789Z,12.40
2018-12-07T08:38:04.097Z,11.90
2018-12-07T08:40:33.069Z,11.90
2018-12-07T08:43:02.103Z,14.40
2018-12-07T08:45:32.404Z,12.00
2018-12-07T08:53:02.835Z,11.80
2018-12-07T08:58:04.543Z,11.90
2018-12-07T09:05:39.873Z,11.70
2018-12-07T09:08:15.242Z,12.00
2018-12-07T09:10:44.371Z,12.10
2018-12-07T09:13:13.400Z,12.10
2018-12-07T09:15:46.360Z,11.40
2018-12-07T09:18:15.661Z,12.00
2018-12-07T09:25:53.083Z,12.10
2018-12-07T09:30:55.716Z,11.50
2018-12-07T09:35:57.841Z,11.80
2018-12-07T09:41:00.476Z,12.20
2018-12-07T09:46:02.467Z,12.00
2018-12-07T09:55:57.755Z,11.20
2018-12-07T10:05:53.166Z,12.20
2018-12-07T10:10:54.991Z,12.00
2018-12-07T10:15:52.581Z,11.90
2018-12-07T10:23:23.288Z,12.20
2018-12-07T10:28:25.457Z,12.00
2018-12-07T10:30:54.536Z,12.20
2018-12-07T10:33:27.115Z,12.30
2018-12-07T10:38:28.242Z,12.30
2018-12-07T10:40:57.677Z,12.40
2018-12-07T10:43:30.694Z,12.30
2018-12-07T10:45:59.843Z,12.70
2018-12-07T10:48:36.754Z,12.30
2018-12-07T11:27:02.790Z,12.80
2018-12-07T11:29:37.284Z,12.90
2018-12-07T11:32:11.412Z,13.30
2018-12-07T11:34:46.365Z,12.80
2018-12-07T11:39:45.472Z,13.00
2018-12-07T11:42:14.765Z,13.20
2018-12-07T11:44:43.715Z,13.20
2018-12-07T11:47:12.700Z,13.10
2018-12-07T11:49:42.139Z,13.70
2018-12-07T11:54:41.088Z,13.20
2018-12-07T12:07:19.663Z,12.80
2018-12-07T12:09:48.913Z,12.60
2018-12-07T12:14:50.415Z,14.10
2018-12-07T12:19:54.651Z,12.70
2018-12-07T12:24:56.121Z,15.60
2018-12-07T12:44:58.208Z,13.50
2018-12-07T12:47:27.179Z,13.40
2018-12-07T12:49:56.443Z,13.30
2018-12-07T12:54:53.971Z,12.60
2018-12-07T12:57:23.255Z,11.60
2018-12-07T12:59:52.220Z,14.70
2018-12-07T13:02:21.188Z,13.10
2018-12-07T13:04:50.490Z,15.70
2018-12-07T13:14:56.376Z,12.70
2018-12-07T13:17:25.324Z,13.10
2018-12-07T13:19:58.129Z,12.90
2018-12-07T13:22:27.103Z,12.80
2018-12-07T13:25:00.847Z,12.80
2018-12-07T13:27:30.115Z,12.70
2018-12-07T13:30:04.287Z,12.40
2018-12-07T13:32:33.284Z,12.50
2018-12-07T13:35:06.091Z,15.90
2018-12-07T13:37:35.076Z,12.40
2018-12-07T13:40:09.951Z,14.50
2018-12-07T13:45:13.758Z,16.00
2018-12-07T13:47:42.819Z,12.50
2018-12-07T13:55:18.803Z,15.30
2018-12-07T13:57:48.227Z,12.30
2018-12-07T14:00:21.225Z,11.40
2018-12-07T14:12:54.268Z,12.00
2018-12-07T14:15:27.192Z,11.20
2018-12-07T14:22:58.660Z,10.90
2018-12-07T14:28:00.434Z,11.90
2018-12-07T14:35:37.397Z,12.20
2018-12-07T14:45:41.885Z,11.70
2018-12-07T14:55:55.876Z,11.80
2018-12-07T15:03:22.597Z,11.60
2018-12-07T15:18:28.830Z,11.10
2018-12-07T15:23:30.691Z,10.90
2018-12-07T15:36:01.091Z,7.20
2018-12-07T15:38:30.389Z,8.50
2018-12-07T15:40:59.765Z,10.00
2018-12-07T15:53:34.118Z,11.80
2018-12-07T15:58:32.059Z,10.30
2018-12-07T16:08:29.826Z,10.40
2018-12-07T16:15:58.115Z,10.40
2018-12-07T16:18:33.536Z,10.50
2018-12-07T16:23:35.524Z,7.90
2018-12-07T16:28:38.230Z,10.60
2018-12-07T16:31:07.791Z,10.50
2018-12-07T16:33:40.537Z,10.70
2018-12-07T16:36:10.071Z,10.70
2018-12-07T16:41:10.503Z,10.50
2018-12-07T16:43:44.612Z,10.20
2018-12-07T16:48:47.310Z,8.30
2018-12-07T16:53:50.915Z,10.60
2018-12-07T17:08:57.594Z,10.50
2018-12-07T17:21:32.993Z,9.50
2018-12-07T17:26:35.526Z,9.10
2018-12-07T17:39:01.860Z,8.90
2018-12-07T17:44:00.404Z,8.80
2018-12-07T17:56:29.268Z,8.40
2018-12-07T17:58:58.593Z,9.00
2018-12-07T18:01:27.596Z,11.30
2018-12-07T18:03:56.878Z,8.10
2018-12-07T18:06:30.637Z,8.20
2018-12-07T18:08:59.822Z,8.00
2018-12-07T18:16:33.013Z,8.00
2018-12-07T18:19:02.506Z,7.80
2018-12-07T18:21:37.224Z,10.90
2018-12-07T18:24:06.568Z,7.80
2018-12-07T18:26:39.445Z,5.40
2018-12-07T18:29:08.737Z,7.90
2018-12-07T18:34:10.276Z,10.00
2018-12-07T18:39:13.010Z,7.50
2018-12-07T18:49:18.430Z,7.00
2018-12-07T18:51:55.534Z,6.80
2018-12-07T18:54:25.764Z,7.10
2018-12-07T18:59:24.531Z,6.70
2018-12-07T19:04:26.048Z,6.20
2018-12-07T19:12:03.412Z,6.50
2018-12-07T19:17:05.411Z,6.60
2018-12-07T19:22:04.228Z,6.50
2018-12-07T19:24:33.778Z,6.60
2018-12-07T19:27:03.007Z,6.60
2018-12-07T19:32:01.944Z,6.50
2018-12-07T19:34:31.122Z,6.70
2018-12-07T19:37:01.048Z,6.60
2018-12-07T19:44:28.288Z,6.60
2018-12-07T19:49:26.836Z,6.60
2018-12-07T19:54:27.670Z,3.90
2018-12-07T20:04:31.574Z,6.90
2018-12-07T20:09:34.108Z,6.50
2018-12-07T20:14:36.106Z,6.40
2018-12-07T20:17:05.600Z,6.20
2018-12-07T20:24:40.364Z,6.40
2018-12-07T20:29:42.847Z,3.30
2018-12-07T20:32:12.043Z,6.50
2018-12-07T20:37:17.370Z,6.50
2018-12-07T20:39:49.912Z,6.30
2018-12-07T20:42:19.969Z,6.40
2018-12-07T20:44:52.974Z,6.50
2018-12-07T20:47:24.922Z,6.10
2018-12-07T20:52:23.332Z,6.30
2018-12-07T20:54:56.595Z,6.40
2018-12-07T20:57:25.995Z,8.80
2018-12-07T20:59:59.160Z,6.40
2018-12-07T21:11:00.325Z,6.50
2018-12-07T21:13:51.577Z,9.80
2018-12-07T21:25:30.685Z,6.50
2018-12-07T21:28:00.207Z,6.40
2018-12-07T21:31:03.949Z,6.30
2018-12-07T21:34:42.975Z,6.50
2018-12-07T21:42:10.572Z,7.40
2018-12-07T21:44:40.024Z,10.40
2018-12-07T21:49:51.257Z,6.70
2018-12-07T21:52:30.191Z,6.80
2018-12-07T21:54:59.168Z,6.70
2018-12-07T21:57:41.448Z,7.20
2018-12-07T22:00:11.031Z,7.00
2018-12-07T22:02:40.419Z,6.70
2018-12-07T22:05:09.719Z,6.70
2018-12-07T22:10:08.324Z,6.60
2018-12-07T22:15:06.570Z,6.50
2018-12-07T22:20:09.270Z,6.40
2018-12-07T22:22:42.315Z,6.40
2018-12-07T22:25:11.753Z,6.00
2018-12-07T22:27:45.095Z,6.30
2018-12-07T22:30:14.211Z,7.70
2018-12-07T22:40:20.768Z,6.20
2018-12-07T22:42:53.585Z,6.00
2018-12-07T22:47:55.363Z,5.90
2018-12-07T22:52:58.263Z,6.10
2018-12-07T22:58:00.067Z,6.10
2018-12-07T23:03:01.991Z,6.20
2018-12-07T23:08:04.600Z,6.10
2018-12-07T23:10:37.427Z,6.10
2018-12-07T23:13:12.080Z,6.10
2018-12-07T23:23:15.270Z,6.30
2018-12-07T23:33:20.630Z,6.40
2018-12-07T23:38:22.944Z,6.10
2018-12-07T23:40:52.195Z,6.40
2018-12-07T23:48:34.812Z,6.20
2018-12-07T23:51:03.795Z,6.40
2018-12-07T23:53:32.956Z,6.20
2018-12-07T23:58:31.799Z,6.10
